Time;durP1;ratioP1;P1;durP2;ratioP2;P2;SDS_P1;SDS_P2;PMS_P1;PMS_P2;Temp;Humidity;BMP_temperature;BMP_pressure;BME280_temperature;BME280_humidity;BME280_pressure;Samples;Min_cycle;Max_cycle;Signal;HPM_P1;HPM_P2
2021/12/26 00:00:28;;;;;;;10.03;4.57;;;-7.70;99.90;;;;;;5049898;28;20203;-66
2021/12/26 00:02:55;;;;;;;8.17;3.83;;;-7.80;99.90;;;;;;5049748;28;20203;-66
2021/12/26 00:05:26;;;;;;;10.37;4.37;;;-8.00;99.90;;;;;;5050068;28;20257;-66
2021/12/26 00:07:53;;;;;;;10.27;4.17;;;-8.40;99.90;;;;;;5048877;28;20234;-66
2021/12/26 00:10:23;;;;;;;8.83;4.57;;;-8.20;99.90;;;;;;5048721;28;20619;-66
2021/12/26 00:12:50;;;;;;;10.50;5.30;;;-8.20;99.90;;;;;;5048754;28;20205;-66
2021/12/26 00:15:17;;;;;;;9.37;4.97;;;-8.20;99.90;;;;;;5049550;28;20203;-66
2021/12/26 00:17:44;;;;;;;12.13;5.07;;;-8.10;99.90;;;;;;5048444;28;20214;-67
2021/12/26 00:20:12;;;;;;;10.27;4.90;;;-7.90;99.90;;;;;;5049120;28;20241;-66
2021/12/26 00:22:42;;;;;;;12.83;6.57;;;-7.90;99.90;;;;;;5047022;28;20676;-66
2021/12/26 00:25:10;;;;;;;10.63;5.70;;;-8.00;99.90;;;;;;5047247;28;20203;-66
2021/12/26 00:27:38;;;;;;;14.07;6.43;;;-8.00;99.90;;;;;;5047042;28;20269;-66
2021/12/26 00:30:07;;;;;;;11.37;5.83;;;-8.00;99.90;;;;;;5046630;28;20669;-66
2021/12/26 00:32:34;;;;;;;12.07;5.97;;;-8.00;99.90;;;;;;5045236;28;20198;-66
2021/12/26 00:35:01;;;;;;;11.70;5.63;;;-8.20;99.90;;;;;;5046677;28;20257;-66
2021/12/26 00:37:28;;;;;;;13.83;5.60;;;-7.90;99.90;;;;;;5045435;28;20218;-66
2021/12/26 00:39:57;;;;;;;14.77;5.83;;;-7.80;99.90;;;;;;5046945;28;20235;-67
2021/12/26 00:42:24;;;;;;;10.40;5.10;;;-7.80;99.90;;;;;;5045669;28;20207;-66
2021/12/26 00:44:51;;;;;;;11.93;5.57;;;-8.00;99.90;;;;;;5046198;28;20253;-66
2021/12/26 00:47:18;;;;;;;9.93;4.80;;;-8.00;99.90;;;;;;5044459;28;20253;-66
2021/12/26 00:49:45;;;;;;;11.07;5.43;;;-8.00;99.90;;;;;;5045871;28;20227;-66
2021/12/26 00:52:12;;;;;;;10.53;5.10;;;-7.90;99.90;;;;;;5045559;28;20199;-66
2021/12/26 00:54:39;;;;;;;13.37;5.50;;;-8.10;99.90;;;;;;5045788;28;20256;-66
2021/12/26 00:57:07;;;;;;;12.90;5.80;;;-8.10;99.90;;;;;;5046056;28;20195;-67
2021/12/26 00:59:34;;;;;;;13.80;5.73;;;-8.20;99.90;;;;;;5045159;28;20227;-66
2021/12/26 01:02:02;;;;;;;15.53;6.30;;;-8.20;99.90;;;;;;5046049;28;20226;-67
2021/12/26 01:04:29;;;;;;;12.40;5.57;;;-8.00;99.90;;;;;;5045254;28;20199;-67
2021/12/26 01:06:57;;;;;;;14.07;5.80;;;-7.80;99.90;;;;;;5044844;28;20207;-67
2021/12/26 01:09:27;;;;;;;12.50;5.60;;;-7.80;99.90;;;;;;5045098;28;20203;-72
2021/12/26 01:12:00;;;;;;;13.50;5.07;;;-8.10;99.90;;;;;;5043855;28;20211;-72
2021/12/26 01:14:31;;;;;;;9.07;4.90;;;-8.30;99.90;;;;;;5044833;28;20207;-73
2021/12/26 01:17:10;;;;;;;10.40;5.20;;;-8.20;99.90;;;;;;5044610;28;20681;-72
2021/12/26 01:19:44;;;;;;;14.47;5.23;;;-8.30;99.90;;;;;;5043558;28;20223;-73
2021/12/26 01:22:12;;;;;;;11.03;5.20;;;-8.40;99.90;;;;;;5044292;28;20273;-72
2021/12/26 01:24:39;;;;;;;13.20;6.40;;;-8.50;99.90;;;;;;5045515;28;20290;-72
2021/12/26 01:27:07;;;;;;;12.80;6.27;;;-8.20;99.90;;;;;;5044544;28;20288;-73
2021/12/26 01:29:36;;;;;;;12.67;6.30;;;-8.10;99.90;;;;;;5044512;28;20257;-72
2021/12/26 01:32:05;;;;;;;12.37;6.30;;;-8.00;99.90;;;;;;5045124;28;20253;-72
2021/12/26 01:34:32;;;;;;;11.57;6.53;;;-8.00;99.90;;;;;;5044914;28;20227;-72
2021/12/26 01:36:59;;;;;;;11.00;5.37;;;-8.20;99.90;;;;;;5045327;28;20230;-72
2021/12/26 01:39:26;;;;;;;14.73;5.60;;;-8.20;99.90;;;;;;5044274;28;20234;-72
2021/12/26 01:41:54;;;;;;;11.20;5.90;;;-8.20;99.90;;;;;;5042994;28;20240;-73
2021/12/26 01:44:21;;;;;;;12.40;6.07;;;-8.10;99.90;;;;;;5045282;28;20203;-72
2021/12/26 01:46:50;;;;;;;11.30;5.30;;;-8.20;99.90;;;;;;5043143;28;20207;-72
2021/12/26 01:49:19;;;;;;;10.83;4.70;;;-8.20;99.90;;;;;;5047550;28;20257;-72
2021/12/26 01:51:48;;;;;;;11.47;5.30;;;-8.20;99.90;;;;;;5048077;28;20195;-72
2021/12/26 01:54:27;;;;;;;11.03;5.10;;;-8.30;99.90;;;;;;5048719;28;20621;-72
2021/12/26 01:56:54;;;;;;;12.00;6.00;;;-7.80;99.90;;;;;;5046088;28;20207;-72
2021/12/26 01:59:21;;;;;;;13.03;5.37;;;-8.00;99.90;;;;;;5047618;28;20215;-73
2021/12/26 02:01:50;;;;;;;12.43;6.23;;;-8.20;99.90;;;;;;5047856;28;20253;-72
2021/12/26 02:04:17;;;;;;;11.97;5.73;;;-8.20;99.90;;;;;;5046490;28;20264;-73
2021/12/26 02:06:44;;;;;;;11.43;5.97;;;-8.10;99.90;;;;;;5046783;28;20230;-72
2021/12/26 02:09:12;;;;;;;13.80;6.30;;;-8.30;99.90;;;;;;5047938;28;20195;-72
2021/12/26 02:11:40;;;;;;;14.63;6.13;;;-8.20;99.90;;;;;;5047860;28;20230;-72
2021/12/26 02:14:07;;;;;;;11.63;6.03;;;-8.20;99.90;;;;;;5046900;28;20606;-72
2021/12/26 02:16:35;;;;;;;12.43;5.77;;;-8.30;99.90;;;;;;5049084;28;20199;-72
2021/12/26 02:19:04;;;;;;;14.33;6.40;;;-8.30;99.90;;;;;;5045920;28;20225;-72
2021/12/26 02:21:51;;;;;;;10.73;5.47;;;-8.30;99.90;;;;;;5047855;28;20272;-72
2021/12/26 02:24:24;;;;;;;9.90;4.70;;;-8.40;99.90;;;;;;5045448;28;20211;-73
2021/12/26 02:29:39;;;;;;;13.63;5.67;;;-8.30;99.90;;;;;;5047181;28;20198;-72
2021/12/26 02:32:07;;;;;;;11.60;5.63;;;-8.30;99.90;;;;;;5046545;28;21631;-73
2021/12/26 02:34:34;;;;;;;12.23;5.60;;;-8.40;99.90;;;;;;5046556;28;20276;-72
2021/12/26 02:37:02;;;;;;;12.27;5.00;;;-8.40;99.90;;;;;;5046200;28;20245;-72
2021/12/26 02:39:31;;;;;;;11.63;5.47;;;-8.30;99.90;;;;;;5046081;28;20743;-73
2021/12/26 02:41:58;;;;;;;14.73;6.10;;;-8.30;99.90;;;;;;5046602;28;20202;-72
2021/12/26 02:44:25;;;;;;;12.93;6.07;;;-8.30;99.90;;;;;;5046806;28;20199;-73
2021/12/26 02:46:52;;;;;;;10.67;5.43;;;-8.20;99.90;;;;;;5045779;28;20203;-72
2021/12/26 02:49:23;;;;;;;15.50;5.77;;;-8.30;99.90;;;;;;5046146;28;20203;-72
2021/12/26 02:51:50;;;;;;;12.97;5.43;;;-8.70;99.90;;;;;;5046456;28;20238;-73
2021/12/26 02:54:19;;;;;;;12.43;6.03;;;-8.90;99.90;;;;;;5046249;28;20544;-72
2021/12/26 02:56:46;;;;;;;13.17;4.77;;;-8.90;99.90;;;;;;5046698;28;20191;-72
2021/12/26 02:59:13;;;;;;;11.53;5.10;;;-8.80;99.90;;;;;;5045559;28;20222;-72
2021/12/26 03:01:40;;;;;;;12.97;5.77;;;-8.80;99.90;;;;;;5046694;28;20195;-72
2021/12/26 03:04:08;;;;;;;15.47;6.20;;;-8.60;99.90;;;;;;5045829;28;20241;-72
2021/12/26 03:06:42;;;;;;;15.30;5.80;;;-8.50;99.90;;;;;;5046745;28;20222;-72
2021/12/26 03:09:09;;;;;;;10.57;5.10;;;-8.60;99.90;;;;;;5044050;28;20286;-73
2021/12/26 03:11:38;;;;;;;6.97;4.67;;;-8.80;99.90;;;;;;5046082;28;20272;-72
2021/12/26 03:14:06;;;;;;;13.40;5.73;;;-8.90;99.90;;;;;;5046143;28;20221;-72
2021/12/26 03:16:33;;;;;;;12.37;5.27;;;-8.70;99.90;;;;;;5051210;28;20203;-72
2021/12/26 03:19:02;;;;;;;13.40;6.30;;;-8.70;99.90;;;;;;5052370;28;20297;-72
2021/12/26 03:21:29;;;;;;;9.60;5.83;;;-8.70;99.90;;;;;;5050952;28;20252;-72
2021/12/26 03:23:57;;;;;;;12.13;5.60;;;-8.80;99.90;;;;;;5051745;28;20245;-73
2021/12/26 03:26:24;;;;;;;9.77;5.17;;;-8.90;99.90;;;;;;5052255;28;20199;-72
2021/12/26 03:28:53;;;;;;;10.67;5.30;;;-8.80;99.90;;;;;;5051334;28;20239;-73
2021/12/26 03:31:20;;;;;;;13.67;5.80;;;-8.70;99.90;;;;;;5051441;28;20536;-72
2021/12/26 03:33:47;;;;;;;11.17;5.30;;;-8.90;99.90;;;;;;5051082;28;20207;-73
2021/12/26 03:36:14;;;;;;;11.70;5.97;;;-9.00;99.90;;;;;;5051496;28;20202;-72
2021/12/26 03:38:41;;;;;;;12.23;5.57;;;-9.10;99.90;;;;;;5050940;28;20588;-73
2021/12/26 03:41:08;;;;;;;12.63;5.60;;;-9.30;99.90;;;;;;5050930;28;20386;-72
2021/12/26 03:43:35;;;;;;;10.83;4.87;;;-9.10;99.90;;;;;;5050847;28;20213;-72
2021/12/26 03:46:04;;;;;;;10.37;5.37;;;-9.30;99.90;;;;;;5051679;28;20714;-72
2021/12/26 03:48:31;;;;;;;12.37;5.57;;;-9.30;99.90;;;;;;5050857;28;20203;-72
2021/12/26 03:50:59;;;;;;;10.83;5.97;;;-9.40;99.90;;;;;;5041274;28;20195;-72
2021/12/26 03:53:27;;;;;;;11.50;5.90;;;-9.30;99.90;;;;;;5050670;28;20726;-72
2021/12/26 03:55:54;;;;;;;11.97;6.20;;;-9.50;99.90;;;;;;5052059;28;20269;-72
2021/12/26 03:58:22;;;;;;;11.93;5.67;;;-9.50;99.90;;;;;;5051050;28;20203;-72
2021/12/26 04:00:50;;;;;;;13.17;6.00;;;-9.30;99.90;;;;;;5052149;28;20195;-73
2021/12/26 04:03:19;;;;;;;13.60;6.57;;;-9.10;99.90;;;;;;5051255;28;20221;-72
2021/12/26 04:05:46;;;;;;;11.97;6.03;;;-8.80;99.90;;;;;;5051746;28;20265;-72
2021/12/26 04:08:14;;;;;;;11.43;6.23;;;-9.10;99.90;;;;;;5051880;28;20199;-72
2021/12/26 04:10:41;;;;;;;11.03;5.87;;;-9.00;99.90;;;;;;5051190;28;20207;-72
2021/12/26 04:13:08;;;;;;;12.43;6.40;;;-9.10;99.90;;;;;;5049595;28;20207;-72
2021/12/26 04:15:35;;;;;;;16.00;7.40;;;-9.10;99.90;;;;;;5051386;28;20207;-72
2021/12/26 04:18:02;;;;;;;11.90;5.30;;;-9.10;99.90;;;;;;5051740;28;20234;-72
2021/12/26 04:20:31;;;;;;;12.13;6.57;;;-9.40;99.90;;;;;;5056877;28;20231;-72
2021/12/26 04:22:58;;;;;;;15.70;6.97;;;-9.10;99.90;;;;;;5051445;28;20207;-72
2021/12/26 04:25:27;;;;;;;13.37;6.80;;;-9.00;99.90;;;;;;5051149;28;20484;-72
2021/12/26 04:27:54;;;;;;;12.73;6.33;;;-9.00;99.90;;;;;;5051367;28;20211;-72
2021/12/26 04:30:22;;;;;;;12.03;6.03;;;-9.10;99.90;;;;;;5051238;28;20252;-72
2021/12/26 04:32:49;;;;;;;13.10;6.13;;;-9.10;99.90;;;;;;5049355;28;20264;-73
2021/12/26 04:35:18;;;;;;;11.00;6.27;;;-9.00;99.90;;;;;;5050949;28;20206;-68
2021/12/26 04:37:47;;;;;;;15.13;6.43;;;-9.00;99.90;;;;;;5049547;28;20199;-72
2021/12/26 04:40:15;;;;;;;12.67;6.87;;;-8.90;99.90;;;;;;5031595;28;20251;-72
2021/12/26 04:42:45;;;;;;;14.43;6.90;;;-8.80;99.90;;;;;;5030236;28;20620;-72
2021/12/26 04:45:12;;;;;;;13.70;5.97;;;-9.00;99.90;;;;;;5042257;28;20273;-72
2021/12/26 04:47:40;;;;;;;12.57;6.60;;;-9.00;99.90;;;;;;5050196;28;20202;-72
2021/12/26 04:50:10;;;;;;;13.00;6.43;;;-9.00;99.90;;;;;;5051061;28;20607;-73
2021/12/26 04:52:39;;;;;;;12.23;5.77;;;-8.80;99.90;;;;;;5050209;28;20529;-72
2021/12/26 04:55:08;;;;;;;12.03;6.43;;;-9.00;99.90;;;;;;5046012;28;20702;-72
2021/12/26 04:57:35;;;;;;;18.93;7.97;;;-8.90;99.90;;;;;;5049953;28;20562;-72
2021/12/26 05:00:04;;;;;;;13.37;6.50;;;-8.80;99.90;;;;;;5050614;28;20245;-72
2021/12/26 05:02:35;;;;;;;13.97;6.83;;;-9.30;99.90;;;;;;5051078;28;20256;-72
2021/12/26 05:05:03;;;;;;;13.23;7.20;;;-9.50;99.90;;;;;;5051128;28;20552;-72
2021/12/26 05:07:30;;;;;;;12.60;6.23;;;-9.10;99.90;;;;;;5049802;28;20199;-72
2021/12/26 05:09:57;;;;;;;15.37;6.80;;;-8.70;99.90;;;;;;5050146;28;20199;-73
2021/12/26 05:12:25;;;;;;;12.57;6.97;;;-8.90;99.90;;;;;;5050582;28;20211;-72
2021/12/26 05:14:53;;;;;;;15.60;5.57;;;-8.80;99.90;;;;;;5051258;28;20195;-73
2021/12/26 05:17:20;;;;;;;15.03;6.60;;;-8.90;99.90;;;;;;5048842;28;20738;-73
2021/12/26 05:19:47;;;;;;;16.13;7.70;;;-8.80;99.90;;;;;;5050910;28;20681;-72
2021/12/26 05:22:14;;;;;;;12.60;7.27;;;-8.70;99.90;;;;;;5050298;28;20736;-72
2021/12/26 05:24:41;;;;;;;14.83;6.97;;;-8.50;99.90;;;;;;5054947;28;20199;-72
2021/12/26 05:27:08;;;;;;;15.10;6.30;;;-8.40;99.90;;;;;;5054215;28;20264;-72
2021/12/26 05:29:36;;;;;;;15.57;7.67;;;-8.50;99.90;;;;;;5053695;28;20203;-72
2021/12/26 05:32:03;;;;;;;15.63;7.00;;;-8.80;99.90;;;;;;5054523;28;20256;-72
2021/12/26 05:34:30;;;;;;;10.73;5.70;;;-8.90;99.90;;;;;;5053903;28;20252;-73
2021/12/26 05:36:57;;;;;;;12.87;5.97;;;-8.90;99.90;;;;;;5054093;28;20257;-72
2021/12/26 05:39:24;;;;;;;15.13;7.37;;;-9.10;99.90;;;;;;5053676;28;20227;-72
2021/12/26 05:41:51;;;;;;;12.53;5.93;;;-9.00;99.90;;;;;;5054519;28;20722;-72
2021/12/26 05:44:18;;;;;;;15.03;7.00;;;-9.00;99.90;;;;;;5053960;28;20203;-73
2021/12/26 05:46:47;;;;;;;14.20;6.47;;;-9.00;99.90;;;;;;5053700;28;20641;-72
2021/12/26 05:49:14;;;;;;;13.17;5.90;;;-9.20;99.90;;;;;;5052643;28;20245;-72
2021/12/26 05:51:42;;;;;;;16.80;7.17;;;-9.20;99.90;;;;;;5053496;28;20252;-72
2021/12/26 05:54:10;;;;;;;12.80;6.50;;;-9.20;99.90;;;;;;5054004;28;20261;-73
2021/12/26 05:56:37;;;;;;;17.10;7.20;;;-8.80;99.90;;;;;;5053783;28;20241;-72
2021/12/26 05:59:04;;;;;;;14.47;6.60;;;-8.70;99.90;;;;;;5053601;28;20258;-72
2021/12/26 06:01:31;;;;;;;14.63;6.93;;;-8.70;99.90;;;;;;5053794;28;20207;-72
2021/12/26 06:04:00;;;;;;;20.70;10.07;;;-8.90;99.90;;;;;;5053455;28;20269;-73
2021/12/26 06:06:27;;;;;;;20.70;9.40;;;-8.90;99.90;;;;;;5053543;28;20207;-72
2021/12/26 06:08:54;;;;;;;15.43;6.90;;;-8.90;99.90;;;;;;5053705;28;20203;-73
2021/12/26 06:11:21;;;;;;;14.67;6.00;;;-8.90;99.90;;;;;;5052932;28;20237;-72
2021/12/26 06:13:48;;;;;;;14.43;6.47;;;-9.10;99.90;;;;;;5051490;28;20245;-72
2021/12/26 06:16:15;;;;;;;13.93;7.00;;;-9.20;99.90;;;;;;5053106;28;20199;-73
2021/12/26 06:18:42;;;;;;;12.47;5.93;;;-9.10;99.90;;;;;;5052743;28;20199;-72
2021/12/26 06:21:10;;;;;;;11.23;6.13;;;-9.20;99.90;;;;;;5053641;28;20223;-72
2021/12/26 06:23:37;;;;;;;14.57;6.80;;;-9.20;99.90;;;;;;5052652;28;20722;-72
2021/12/26 06:26:04;;;;;;;13.27;6.00;;;-9.30;99.90;;;;;;5053302;28;20203;-72
2021/12/26 06:28:31;;;;;;;10.27;5.40;;;-9.40;99.90;;;;;;5052311;28;20199;-72
2021/12/26 06:30:58;;;;;;;12.77;5.60;;;-9.50;99.90;;;;;;5052209;28;20211;-72
2021/12/26 06:33:25;;;;;;;11.00;5.10;;;-9.30;99.90;;;;;;5052944;28;20199;-72
2021/12/26 06:35:52;;;;;;;11.63;5.73;;;-9.40;99.90;;;;;;5052364;28;20257;-73
2021/12/26 06:38:20;;;;;;;12.47;5.90;;;-9.40;99.90;;;;;;5053403;28;20199;-72
2021/12/26 06:40:47;;;;;;;12.63;5.97;;;-9.30;99.90;;;;;;5053728;28;20294;-73
2021/12/26 06:43:14;;;;;;;13.73;5.47;;;-9.40;99.90;;;;;;5052278;28;20258;-72
2021/12/26 06:45:42;;;;;;;14.37;5.57;;;-9.70;99.90;;;;;;5053386;28;20579;-73
2021/12/26 06:48:09;;;;;;;10.53;5.77;;;-9.70;99.90;;;;;;5053654;28;20195;-70
2021/12/26 06:50:36;;;;;;;12.83;7.00;;;-9.50;99.90;;;;;;5052393;28;20262;-72
2021/12/26 06:53:04;;;;;;;12.90;6.53;;;-9.40;99.90;;;;;;5053179;28;20203;-72
2021/12/26 06:55:32;;;;;;;12.93;7.83;;;-9.40;99.90;;;;;;5052117;28;20203;-72
2021/12/26 06:57:59;;;;;;;15.23;6.77;;;-9.40;99.90;;;;;;5044594;28;20199;-72
2021/12/26 07:00:26;;;;;;;13.00;6.40;;;-9.50;99.90;;;;;;5052102;28;20277;-72
2021/12/26 07:02:53;;;;;;;11.87;5.27;;;-9.50;99.90;;;;;;5053140;28;20608;-72
2021/12/26 07:05:20;;;;;;;16.37;6.60;;;-9.50;99.90;;;;;;5052306;28;20203;-72
2021/12/26 07:07:47;;;;;;;13.90;5.97;;;-9.50;99.90;;;;;;5052630;28;20590;-72
2021/12/26 07:10:15;;;;;;;15.70;6.37;;;-9.40;99.90;;;;;;5035544;28;20246;-72
2021/12/26 07:12:44;;;;;;;14.23;6.90;;;-9.20;99.90;;;;;;5051796;28;20257;-72
2021/12/26 07:15:12;;;;;;;16.03;8.37;;;-8.60;99.90;;;;;;5051168;28;20206;-72
2021/12/26 07:17:40;;;;;;;17.77;9.57;;;-8.50;99.90;;;;;;5051346;28;20469;-73
2021/12/26 07:20:08;;;;;;;23.73;10.00;;;-8.40;99.90;;;;;;5051153;28;20660;-72
2021/12/26 07:22:35;;;;;;;19.77;10.20;;;-8.30;99.90;;;;;;5051850;28;20632;-72
2021/12/26 07:25:03;;;;;;;18.47;9.83;;;-8.30;99.90;;;;;;5051830;28;20203;-72
2021/12/26 07:27:30;;;;;;;22.23;10.03;;;-8.30;99.90;;;;;;5051335;28;20351;-72
2021/12/26 07:30:02;;;;;;;21.63;8.37;;;-8.30;99.90;;;;;;5051095;28;20203;-73
2021/12/26 07:32:29;;;;;;;21.30;10.43;;;-8.20;99.90;;;;;;5052136;28;20671;-73
2021/12/26 07:34:57;;;;;;;19.57;10.67;;;-8.20;99.90;;;;;;5051036;28;20245;-73
2021/12/26 07:37:24;;;;;;;19.63;10.57;;;-8.40;99.90;;;;;;5051620;28;20203;-72
2021/12/26 07:39:51;;;;;;;19.10;10.57;;;-8.40;99.90;;;;;;5050449;28;20246;-73
2021/12/26 07:42:18;;;;;;;18.63;8.33;;;-8.80;99.90;;;;;;5051372;28;20203;-72
2021/12/26 07:44:45;;;;;;;20.27;9.60;;;-8.50;99.90;;;;;;5050913;28;20641;-72
2021/12/26 07:47:14;;;;;;;20.80;10.93;;;-8.50;99.90;;;;;;5051225;28;20252;-73
2021/12/26 07:49:42;;;;;;;20.57;8.13;;;-8.30;99.90;;;;;;5052964;28;20284;-72
2021/12/26 07:52:13;;;;;;;21.93;9.60;;;-8.20;99.90;;;;;;5050996;28;20533;-72
2021/12/26 07:54:40;;;;;;;21.03;8.70;;;-8.10;99.90;;;;;;5051601;28;20298;-72
2021/12/26 07:57:07;;;;;;;21.87;10.30;;;-8.20;99.90;;;;;;5048914;28;20204;-72
2021/12/26 07:59:35;;;;;;;20.07;9.27;;;-8.40;99.90;;;;;;5050269;28;20195;-72
2021/12/26 08:02:02;;;;;;;20.27;9.83;;;-8.30;99.90;;;;;;5051114;28;21998;-72
2021/12/26 08:04:30;;;;;;;20.00;9.93;;;-8.30;99.90;;;;;;5051004;28;20253;-73
2021/12/26 08:06:59;;;;;;;20.60;8.90;;;-8.30;99.90;;;;;;5050740;28;20224;-66
2021/12/26 08:09:26;;;;;;;21.63;9.70;;;-8.30;99.90;;;;;;5051088;28;20297;-66
2021/12/26 08:11:53;;;;;;;20.77;9.60;;;-8.40;99.90;;;;;;5050951;28;20238;-66
2021/12/26 08:14:20;;;;;;;20.33;9.40;;;-8.30;99.90;;;;;;5050677;28;20235;-66
2021/12/26 08:16:48;;;;;;;24.80;10.23;;;-8.10;99.90;;;;;;5050798;28;20249;-66
2021/12/26 08:19:15;;;;;;;18.90;8.70;;;-7.80;99.90;;;;;;5048582;28;20853;-66
2021/12/26 08:21:43;;;;;;;18.37;8.27;;;-7.80;99.90;;;;;;5050783;28;20276;-66
2021/12/26 08:24:10;;;;;;;21.27;10.40;;;-7.80;99.90;;;;;;5047282;28;20717;-66
2021/12/26 08:26:37;;;;;;;20.33;8.67;;;-7.60;99.90;;;;;;5048283;28;20238;-66
2021/12/26 08:29:04;;;;;;;19.23;9.33;;;-7.50;99.90;;;;;;5047774;28;20203;-66
2021/12/26 08:31:31;;;;;;;18.97;8.37;;;-7.30;99.90;;;;;;5049635;28;20416;-66
2021/12/26 08:33:58;;;;;;;21.10;9.80;;;-7.30;99.90;;;;;;5048883;28;20764;-66
2021/12/26 08:36:26;;;;;;;21.60;10.20;;;-7.10;99.90;;;;;;5050036;28;20362;-66
2021/12/26 08:38:54;;;;;;;21.43;9.77;;;-7.10;99.90;;;;;;5049966;28;20695;-66
2021/12/26 08:41:23;;;;;;;18.57;9.50;;;-6.80;99.90;;;;;;5048679;28;20269;-66
2021/12/26 08:43:53;;;;;;;21.60;9.47;;;-6.90;99.90;;;;;;5048662;28;20260;-66
2021/12/26 08:46:20;;;;;;;18.20;10.03;;;-7.10;99.90;;;;;;5052376;28;20272;-66
2021/12/26 08:48:47;;;;;;;21.00;9.57;;;-7.20;99.90;;;;;;5050726;28;20256;-66
2021/12/26 08:51:15;;;;;;;18.37;7.97;;;-7.10;99.90;;;;;;5052630;28;20679;-66
2021/12/26 08:53:42;;;;;;;21.70;10.40;;;-6.90;99.90;;;;;;5045397;28;20208;-65
2021/12/26 08:56:10;;;;;;;20.67;9.97;;;-6.50;99.90;;;;;;5046197;28;20649;-66
2021/12/26 08:58:37;;;;;;;19.73;10.53;;;-6.40;99.90;;;;;;5046725;28;20248;-66
2021/12/26 09:01:04;;;;;;;22.23;9.80;;;-6.40;99.90;;;;;;5046118;28;20246;-66
2021/12/26 09:03:31;;;;;;;21.77;8.43;;;-6.40;99.90;;;;;;5046755;28;20207;-66
2021/12/26 09:05:58;;;;;;;22.77;10.50;;;-6.70;99.90;;;;;;5047837;28;20520;-66
2021/12/26 09:08:25;;;;;;;21.20;9.60;;;-6.70;99.90;;;;;;5046937;28;20277;-66
2021/12/26 09:10:52;;;;;;;26.53;12.53;;;-6.80;99.90;;;;;;5044927;28;20203;-66
2021/12/26 09:13:20;;;;;;;24.97;11.60;;;-6.90;99.90;;;;;;5046657;28;20250;-66
2021/12/26 09:15:47;;;;;;;14.90;7.43;;;-6.80;99.90;;;;;;5050129;28;20238;-66
2021/12/26 09:18:14;;;;;;;21.70;9.53;;;-6.70;99.90;;;;;;5050341;28;20195;-66
2021/12/26 09:20:41;;;;;;;21.87;10.10;;;-6.40;99.90;;;;;;5051846;28;20223;-66
2021/12/26 09:23:08;;;;;;;19.20;9.23;;;-6.00;99.90;;;;;;5053889;28;20286;-66
2021/12/26 09:25:35;;;;;;;21.37;9.73;;;-6.50;99.90;;;;;;5052654;28;20245;-66
2021/12/26 09:28:02;;;;;;;24.87;12.30;;;-6.60;99.90;;;;;;5050321;28;20199;-66
2021/12/26 09:30:31;;;;;;;24.80;12.00;;;-6.60;99.90;;;;;;5053334;28;20254;-67
2021/12/26 09:32:58;;;;;;;19.23;8.57;;;-6.50;99.90;;;;;;5053350;28;20306;-66
2021/12/26 09:35:25;;;;;;;20.63;8.93;;;-6.50;99.90;;;;;;5050606;28;20268;-66
2021/12/26 09:37:52;;;;;;;27.60;12.47;;;-6.40;99.90;;;;;;5051578;28;20256;-67
2021/12/26 09:40:19;;;;;;;25.53;11.07;;;-5.90;99.90;;;;;;5053515;28;20223;-66
2021/12/26 09:42:47;;;;;;;21.50;10.00;;;-6.10;99.90;;;;;;5051134;28;20695;-67
2021/12/26 09:45:15;;;;;;;22.27;10.77;;;-5.80;99.90;;;;;;5050053;28;20242;-66
2021/12/26 09:47:45;;;;;;;22.40;11.63;;;-5.70;99.90;;;;;;5049391;28;20272;-66
2021/12/26 09:50:14;;;;;;;23.53;11.97;;;-5.90;99.90;;;;;;5051968;28;20209;-66
2021/12/26 09:52:45;;;;;;;22.53;10.33;;;-6.00;99.90;;;;;;5051082;28;20282;-66
2021/12/26 09:55:13;;;;;;;22.00;9.70;;;-5.90;99.90;;;;;;5052811;28;20207;-66
2021/12/26 09:57:40;;;;;;;20.40;9.57;;;-5.60;99.90;;;;;;5052389;28;20246;-72
2021/12/26 10:00:22;;;;;;;21.93;9.80;;;-5.60;99.90;;;;;;5048251;28;20251;-66
2021/12/26 10:03:13;;;;;;;23.57;10.33;;;-5.60;99.90;;;;;;5047410;28;20257;-66
2021/12/26 10:05:57;;;;;;;21.97;10.03;;;-5.60;99.90;;;;;;5048506;28;20207;-66
2021/12/26 10:08:24;;;;;;;24.47;10.07;;;-5.70;99.90;;;;;;5046522;28;20207;-66
2021/12/26 10:11:09;;;;;;;24.87;11.37;;;-5.50;99.90;;;;;;5047194;28;20211;-66
2021/12/26 10:13:45;;;;;;;24.33;10.47;;;-5.40;99.90;;;;;;5047215;28;20199;-66
2021/12/26 10:16:14;;;;;;;20.47;9.90;;;-5.10;99.90;;;;;;5048459;28;20286;-66
2021/12/26 10:18:43;;;;;;;20.40;9.40;;;-5.20;99.90;;;;;;5047299;28;20536;-66
2021/12/26 10:21:35;;;;;;;23.80;11.00;;;-5.00;99.90;;;;;;5046898;28;20273;-66
2021/12/26 10:24:07;;;;;;;26.03;10.60;;;-4.60;99.90;;;;;;5047419;28;20292;-65
2021/12/26 10:26:37;;;;;;;21.60;9.47;;;-3.90;99.90;;;;;;5047230;28;20264;-65
2021/12/26 10:29:15;;;;;;;22.07;10.57;;;-4.10;99.90;;;;;;5047365;28;20234;-65
2021/12/26 10:31:46;;;;;;;22.70;10.33;;;-4.60;99.90;;;;;;5047311;28;20219;-65
2021/12/26 10:34:27;;;;;;;20.97;8.00;;;-4.70;99.90;;;;;;5048350;28;20207;-65
2021/12/26 10:36:55;;;;;;;21.47;8.63;;;-5.00;99.90;;;;;;5047305;28;20212;-65
2021/12/26 10:39:25;;;;;;;20.53;8.00;;;-5.00;99.90;;;;;;5045984;28;20795;-65
2021/12/26 10:41:54;;;;;;;23.17;10.37;;;-5.00;99.90;;;;;;5047523;28;20231;-65
2021/12/26 10:44:24;;;;;;;20.13;8.90;;;-4.90;99.90;;;;;;5047329;28;20203;-65
2021/12/26 10:46:54;;;;;;;23.37;10.70;;;-4.90;99.90;;;;;;5047388;28;20203;-65
2021/12/26 10:49:24;;;;;;;20.97;9.07;;;-4.90;99.90;;;;;;5045883;28;20203;-65
2021/12/26 10:51:51;;;;;;;19.33;9.33;;;-4.90;99.90;;;;;;5046476;28;20536;-65
2021/12/26 10:54:20;;;;;;;19.13;8.27;;;-4.80;99.90;;;;;;5046433;28;20231;-65
2021/12/26 10:57:04;;;;;;;21.87;8.57;;;-4.70;99.90;;;;;;5047021;28;20203;-65
2021/12/26 10:59:31;;;;;;;22.03;8.67;;;-4.70;99.90;;;;;;5045965;28;20195;-65
2021/12/26 11:01:58;;;;;;;20.37;9.13;;;-4.70;99.90;;;;;;5046033;28;20259;-65
2021/12/26 11:04:26;;;;;;;21.43;7.87;;;-4.70;99.90;;;;;;5046002;28;20264;-65
2021/12/26 11:07:01;;;;;;;21.87;8.80;;;-4.70;99.90;;;;;;5049566;28;20305;-66
2021/12/26 11:09:28;;;;;;;23.27;9.40;;;-4.60;99.90;;;;;;5047364;28;20206;-66
2021/12/26 11:12:01;;;;;;;22.53;9.50;;;-4.70;99.90;;;;;;5046518;28;20203;-65
2021/12/26 11:14:28;;;;;;;21.73;9.20;;;-4.70;99.90;;;;;;5045662;28;20682;-65
2021/12/26 11:16:55;;;;;;;22.37;9.80;;;-4.60;99.90;;;;;;5045653;28;20213;-65
2021/12/26 11:19:43;;;;;;;20.77;9.67;;;-4.60;99.90;;;;;;5049686;28;20202;-65
2021/12/26 11:22:11;;;;;;;23.53;9.67;;;-4.50;99.90;;;;;;5045115;28;20292;-67
2021/12/26 11:24:38;;;;;;;19.60;9.97;;;-4.40;99.90;;;;;;5047231;28;20673;-75
2021/12/26 11:27:07;;;;;;;21.30;9.47;;;-4.40;99.90;;;;;;5050488;28;20249;-75
2021/12/26 11:29:34;;;;;;;21.43;9.33;;;-4.30;99.90;;;;;;5048934;28;20297;-76
2021/12/26 11:32:01;;;;;;;19.93;9.13;;;-4.20;99.90;;;;;;5047226;28;20206;-75
2021/12/26 11:34:30;;;;;;;18.37;8.97;;;-4.10;99.90;;;;;;5045105;28;20265;-72
2021/12/26 11:36:59;;;;;;;20.63;9.27;;;-4.00;99.90;;;;;;5045538;28;20225;-67
2021/12/26 11:39:27;;;;;;;22.03;8.80;;;-3.80;99.90;;;;;;5045993;28;20222;-68
2021/12/26 11:42:07;;;;;;;23.50;8.77;;;-4.00;99.90;;;;;;5051173;28;20223;-68
2021/12/26 11:45:07;;;;;;;17.93;7.77;;;-3.90;99.90;;;;;;5050770;28;20210;-68
2021/12/26 11:47:58;;;;;;;24.03;10.17;;;-3.90;99.90;;;;;;5048930;28;20203;-68
2021/12/26 11:50:35;;;;;;;23.50;9.23;;;-3.80;99.90;;;;;;5048211;28;20565;-68
2021/12/26 11:53:23;;;;;;;24.53;8.80;;;-3.80;99.90;;;;;;5044806;28;20636;-68
2021/12/26 11:56:04;;;;;;;22.83;9.53;;;-3.70;99.90;;;;;;5048180;28;20284;-68
2021/12/26 11:58:42;;;;;;;20.10;8.97;;;-3.70;99.90;;;;;;5050102;28;20289;-69
2021/12/26 12:01:15;;;;;;;19.50;8.53;;;-3.60;99.90;;;;;;5050800;28;20300;-67
2021/12/26 12:03:42;;;;;;;17.77;7.90;;;-3.60;99.90;;;;;;5050611;28;20203;-68
2021/12/26 12:06:23;;;;;;;25.50;9.50;;;-3.50;99.90;;;;;;5049145;28;20253;-67
2021/12/26 12:08:52;;;;;;;21.47;8.60;;;-3.50;99.90;;;;;;5050444;28;20226;-68
2021/12/26 12:11:19;;;;;;;19.93;8.27;;;-3.30;99.90;;;;;;5048842;28;20207;-67
2021/12/26 12:13:49;;;;;;;18.47;7.60;;;-3.40;99.70;;;;;;5050362;28;20618;-67
2021/12/26 12:16:31;;;;;;;21.33;9.10;;;-3.40;99.90;;;;;;5048345;28;20744;-67
2021/12/26 12:19:00;;;;;;;21.97;7.53;;;-3.10;99.90;;;;;;5044378;28;20681;-67
2021/12/26 12:21:34;;;;;;;17.43;7.13;;;-3.30;99.90;;;;;;5044263;28;20223;-68
2021/12/26 12:24:05;;;;;;;20.83;9.37;;;-3.30;99.90;;;;;;5045752;28;20620;-68
2021/12/26 12:26:51;;;;;;;21.90;8.90;;;-3.30;99.90;;;;;;5044887;28;20294;-67
2021/12/26 12:29:47;;;;;;;21.00;9.03;;;-3.20;99.90;;;;;;5044789;28;20226;-67
2021/12/26 12:32:16;;;;;;;16.67;6.73;;;-3.00;99.90;;;;;;5044306;28;20248;-67
2021/12/26 12:34:47;;;;;;;20.20;7.73;;;-2.90;99.90;;;;;;5045306;28;20242;-67
2021/12/26 12:37:28;;;;;;;18.53;7.80;;;-2.90;99.90;;;;;;5044784;28;20211;-68
2021/12/26 12:40:11;;;;;;;20.30;8.77;;;-2.80;99.90;;;;;;5044027;28;20268;-67
2021/12/26 12:42:39;;;;;;;20.33;7.23;;;-2.50;99.50;;;;;;5045296;28;20254;-67
2021/12/26 12:45:07;;;;;;;18.90;8.00;;;-2.70;99.90;;;;;;5044934;28;20203;-67
2021/12/26 12:47:34;;;;;;;18.77;8.60;;;-2.50;99.90;;;;;;5045108;28;20699;-67